sensor_id;sensor_type;location;lat;lon;timestamp;temperature;humidity
48589;DHT22;34369;51.174;6.738;2023-07-13T00:00:01;16.00;51.00
48589;DHT22;34369;51.174;6.738;2023-07-13T00:02:38;16.00;51.10
48589;DHT22;34369;51.174;6.738;2023-07-13T00:05:10;15.90;51.40
48589;DHT22;34369;51.174;6.738;2023-07-13T00:07:43;15.90;51.20
48589;DHT22;34369;51.174;6.738;2023-07-13T00:10:17;15.90;51.40
48589;DHT22;34369;51.174;6.738;2023-07-13T00:12:49;15.80;51.50
48589;DHT22;34369;51.174;6.738;2023-07-13T00:15:33;15.80;51.60
48589;DHT22;34369;51.174;6.738;2023-07-13T00:18:06;15.70;52.00
48589;DHT22;34369;51.174;6.738;2023-07-13T00:20:38;15.70;51.70
48589;DHT22;34369;51.174;6.738;2023-07-13T00:23:13;15.70;52.00
48589;DHT22;34369;51.174;6.738;2023-07-13T00:25:45;15.70;52.10
48589;DHT22;34369;51.174;6.738;2023-07-13T00:28:17;15.60;52.30
48589;DHT22;34369;51.174;6.738;2023-07-13T00:30:51;15.60;52.20
48589;DHT22;34369;51.174;6.738;2023-07-13T00:33:23;15.60;52.30
48589;DHT22;34369;51.174;6.738;2023-07-13T00:35:56;15.60;52.50
48589;DHT22;34369;51.174;6.738;2023-07-13T00:38:29;15.60;52.50
48589;DHT22;34369;51.174;6.738;2023-07-13T00:41:01;15.50;52.50
48589;DHT22;34369;51.174;6.738;2023-07-13T00:43:36;15.50;52.70
48589;DHT22;34369;51.174;6.738;2023-07-13T00:46:18;15.50;52.80
48589;DHT22;34369;51.174;6.738;2023-07-13T00:48:55;15.50;53.00
48589;DHT22;34369;51.174;6.738;2023-07-13T00:51:33;15.50;53.00
48589;DHT22;34369;51.174;6.738;2023-07-13T00:54:11;15.50;53.00
48589;DHT22;34369;51.174;6.738;2023-07-13T00:56:48;15.50;53.10
48589;DHT22;34369;51.174;6.738;2023-07-13T00:59:22;15.50;53.40
48589;DHT22;34369;51.174;6.738;2023-07-13T01:01:57;15.50;53.40
48589;DHT22;34369;51.174;6.738;2023-07-13T01:04:29;15.50;53.40
48589;DHT22;34369;51.174;6.738;2023-07-13T01:07:02;15.50;53.60
48589;DHT22;34369;51.174;6.738;2023-07-13T01:09:34;15.50;53.60
48589;DHT22;34369;51.174;6.738;2023-07-13T01:12:08;15.50;53.50
48589;DHT22;34369;51.174;6.738;2023-07-13T01:14:40;15.50;53.90
48589;DHT22;34369;51.174;6.738;2023-07-13T01:17:14;15.40;53.70
48589;DHT22;34369;51.174;6.738;2023-07-13T01:19:46;15.40;53.80
48589;DHT22;34369;51.174;6.738;2023-07-13T01:22:20;15.40;53.90
48589;DHT22;34369;51.174;6.738;2023-07-13T01:24:55;15.30;54.00
48589;DHT22;34369;51.174;6.738;2023-07-13T01:27:27;15.30;54.10
48589;DHT22;34369;51.174;6.738;2023-07-13T01:30:00;15.30;54.10
48589;DHT22;34369;51.174;6.738;2023-07-13T01:32:34;15.30;54.20
48589;DHT22;34369;51.174;6.738;2023-07-13T01:35:07;15.30;54.10
48589;DHT22;34369;51.174;6.738;2023-07-13T01:37:41;15.30;54.40
48589;DHT22;34369;51.174;6.738;2023-07-13T01:40:15;15.30;54.40
48589;DHT22;34369;51.174;6.738;2023-07-13T01:42:47;15.30;54.30
48589;DHT22;34369;51.174;6.738;2023-07-13T01:45:20;15.30;54.30
48589;DHT22;34369;51.174;6.738;2023-07-13T01:47:52;15.30;54.40
48589;DHT22;34369;51.174;6.738;2023-07-13T01:50:25;15.30;54.50
48589;DHT22;34369;51.174;6.738;2023-07-13T01:52:58;15.30;54.60
48589;DHT22;34369;51.174;6.738;2023-07-13T01:55:32;15.30;54.70
48589;DHT22;34369;51.174;6.738;2023-07-13T01:58:05;15.20;54.70
48589;DHT22;34369;51.174;6.738;2023-07-13T02:00:37;15.20;54.80
48589;DHT22;34369;51.174;6.738;2023-07-13T02:03:09;15.20;54.70
48589;DHT22;34369;51.174;6.738;2023-07-13T02:05:41;15.10;55.00
48589;DHT22;34369;51.174;6.738;2023-07-13T02:08:15;15.20;55.30
48589;DHT22;34369;51.174;6.738;2023-07-13T02:10:48;15.10;55.20
48589;DHT22;34369;51.174;6.738;2023-07-13T02:13:20;15.10;55.20
48589;DHT22;34369;51.174;6.738;2023-07-13T02:15:52;15.10;55.30
48589;DHT22;34369;51.174;6.738;2023-07-13T02:18:25;15.10;55.30
48589;DHT22;34369;51.174;6.738;2023-07-13T02:20:57;15.00;55.30
48589;DHT22;34369;51.174;6.738;2023-07-13T02:23:31;15.00;55.40
48589;DHT22;34369;51.174;6.738;2023-07-13T02:26:03;15.00;55.50
48589;DHT22;34369;51.174;6.738;2023-07-13T02:28:36;15.00;55.50
48589;DHT22;34369;51.174;6.738;2023-07-13T02:31:10;15.00;55.50
48589;DHT22;34369;51.174;6.738;2023-07-13T02:33:43;15.00;55.70
48589;DHT22;34369;51.174;6.738;2023-07-13T02:36:17;15.00;55.80
48589;DHT22;34369;51.174;6.738;2023-07-13T02:38:51;15.00;55.80
48589;DHT22;34369;51.174;6.738;2023-07-13T02:41:23;14.90;56.10
48589;DHT22;34369;51.174;6.738;2023-07-13T02:43:58;14.90;55.90
48589;DHT22;34369;51.174;6.738;2023-07-13T02:46:36;14.90;56.20
48589;DHT22;34369;51.174;6.738;2023-07-13T02:49:08;14.90;56.20
48589;DHT22;34369;51.174;6.738;2023-07-13T02:51:40;14.90;56.40
48589;DHT22;34369;51.174;6.738;2023-07-13T02:54:14;14.90;56.60
48589;DHT22;34369;51.174;6.738;2023-07-13T02:56:46;14.80;56.50
48589;DHT22;34369;51.174;6.738;2023-07-13T02:59:19;14.80;56.40
48589;DHT22;34369;51.174;6.738;2023-07-13T03:01:51;14.80;56.40
48589;DHT22;34369;51.174;6.738;2023-07-13T03:04:23;14.80;56.70
48589;DHT22;34369;51.174;6.738;2023-07-13T03:06:54;14.70;57.10
48589;DHT22;34369;51.174;6.738;2023-07-13T03:09:30;14.70;57.10
48589;DHT22;34369;51.174;6.738;2023-07-13T03:12:04;14.70;57.10
48589;DHT22;34369;51.174;6.738;2023-07-13T03:14:37;14.70;57.40
48589;DHT22;34369;51.174;6.738;2023-07-13T03:17:10;14.70;57.20
48589;DHT22;34369;51.174;6.738;2023-07-13T03:19:42;14.70;57.30
48589;DHT22;34369;51.174;6.738;2023-07-13T03:22:15;14.60;57.50
48589;DHT22;34369;51.174;6.738;2023-07-13T03:24:52;14.60;57.30
48589;DHT22;34369;51.174;6.738;2023-07-13T03:27:24;14.60;57.50
48589;DHT22;34369;51.174;6.738;2023-07-13T03:29:56;14.60;57.30
48589;DHT22;34369;51.174;6.738;2023-07-13T03:32:30;14.60;57.30
48589;DHT22;34369;51.174;6.738;2023-07-13T03:35:02;14.50;57.50
48589;DHT22;34369;51.174;6.738;2023-07-13T03:37:36;14.50;57.70
48589;DHT22;34369;51.174;6.738;2023-07-13T03:40:14;14.50;57.70
48589;DHT22;34369;51.174;6.738;2023-07-13T03:42:47;14.50;57.80
48589;DHT22;34369;51.174;6.738;2023-07-13T03:45:20;14.50;57.80
48589;DHT22;34369;51.174;6.738;2023-07-13T03:47:53;14.50;57.80
48589;DHT22;34369;51.174;6.738;2023-07-13T03:50:26;14.50;57.80
48589;DHT22;34369;51.174;6.738;2023-07-13T03:52:59;14.50;58.00
48589;DHT22;34369;51.174;6.738;2023-07-13T03:55:33;14.50;58.00
48589;DHT22;34369;51.174;6.738;2023-07-13T03:58:26;14.50;58.10
48589;DHT22;34369;51.174;6.738;2023-07-13T04:01:03;14.50;58.20
48589;DHT22;34369;51.174;6.738;2023-07-13T04:03:37;14.50;58.10
48589;DHT22;34369;51.174;6.738;2023-07-13T04:06:21;14.50;58.00
48589;DHT22;34369;51.174;6.738;2023-07-13T04:08:58;14.50;58.10
48589;DHT22;34369;51.174;6.738;2023-07-13T04:11:33;14.50;58.00
48589;DHT22;34369;51.174;6.738;2023-07-13T04:14:07;14.50;58.10
48589;DHT22;34369;51.174;6.738;2023-07-13T04:16:39;14.50;58.10
48589;DHT22;34369;51.174;6.738;2023-07-13T04:19:13;14.50;58.30
48589;DHT22;34369;51.174;6.738;2023-07-13T04:21:46;14.50;58.20
48589;DHT22;34369;51.174;6.738;2023-07-13T04:24:18;14.50;58.20
48589;DHT22;34369;51.174;6.738;2023-07-13T04:26:54;14.50;58.30
48589;DHT22;34369;51.174;6.738;2023-07-13T04:29:30;14.50;58.30
48589;DHT22;34369;51.174;6.738;2023-07-13T04:32:04;14.50;58.30
48589;DHT22;34369;51.174;6.738;2023-07-13T04:34:36;14.60;58.40
48589;DHT22;34369;51.174;6.738;2023-07-13T04:37:09;14.50;58.40
48589;DHT22;34369;51.174;6.738;2023-07-13T04:39:42;14.60;58.50
48589;DHT22;34369;51.174;6.738;2023-07-13T04:42:16;14.50;58.60
48589;DHT22;34369;51.174;6.738;2023-07-13T04:44:50;14.60;58.80
48589;DHT22;34369;51.174;6.738;2023-07-13T04:47:23;14.70;58.90
48589;DHT22;34369;51.174;6.738;2023-07-13T04:49:55;14.70;59.00
48589;DHT22;34369;51.174;6.738;2023-07-13T04:52:28;14.70;59.00
48589;DHT22;34369;51.174;6.738;2023-07-13T04:55:00;14.70;59.20
48589;DHT22;34369;51.174;6.738;2023-07-13T04:57:35;14.70;59.10
48589;DHT22;34369;51.174;6.738;2023-07-13T05:00:09;14.70;59.30
48589;DHT22;34369;51.174;6.738;2023-07-13T05:02:44;14.90;59.50
48589;DHT22;34369;51.174;6.738;2023-07-13T05:05:17;14.90;59.40
48589;DHT22;34369;51.174;6.738;2023-07-13T05:07:50;14.90;59.50
48589;DHT22;34369;51.174;6.738;2023-07-13T05:10:23;15.00;59.30
48589;DHT22;34369;51.174;6.738;2023-07-13T05:12:58;15.00;59.40
48589;DHT22;34369;51.174;6.738;2023-07-13T05:15:30;15.10;59.50
48589;DHT22;34369;51.174;6.738;2023-07-13T05:18:03;15.10;59.50
48589;DHT22;34369;51.174;6.738;2023-07-13T05:20:35;15.20;59.50
48589;DHT22;34369;51.174;6.738;2023-07-13T05:23:07;15.30;59.40
48589;DHT22;34369;51.174;6.738;2023-07-13T05:25:40;15.30;59.50
48589;DHT22;34369;51.174;6.738;2023-07-13T05:28:14;15.50;59.50
48589;DHT22;34369;51.174;6.738;2023-07-13T05:30:47;15.50;59.40
48589;DHT22;34369;51.174;6.738;2023-07-13T05:33:21;15.50;59.30
48589;DHT22;34369;51.174;6.738;2023-07-13T05:35:53;15.60;59.20
48589;DHT22;34369;51.174;6.738;2023-07-13T05:38:26;15.70;59.30
48589;DHT22;34369;51.174;6.738;2023-07-13T05:40:59;15.80;59.10
48589;DHT22;34369;51.174;6.738;2023-07-13T05:43:34;15.80;59.00
48589;DHT22;34369;51.174;6.738;2023-07-13T05:46:07;15.90;58.90
48589;DHT22;34369;51.174;6.738;2023-07-13T05:48:40;15.90;58.90
48589;DHT22;34369;51.174;6.738;2023-07-13T05:51:13;16.00;58.90
48589;DHT22;34369;51.174;6.738;2023-07-13T05:53:45;16.00;58.80
48589;DHT22;34369;51.174;6.738;2023-07-13T05:56:19;16.10;58.90
48589;DHT22;34369;51.174;6.738;2023-07-13T05:58:53;16.10;58.80
48589;DHT22;34369;51.174;6.738;2023-07-13T06:01:26;16.20;58.90
48589;DHT22;34369;51.174;6.738;2023-07-13T06:03:58;16.30;58.60
48589;DHT22;34369;51.174;6.738;2023-07-13T06:06:31;16.30;58.60
48589;DHT22;34369;51.174;6.738;2023-07-13T06:09:08;16.40;58.50
48589;DHT22;34369;51.174;6.738;2023-07-13T06:11:41;16.40;58.50
48589;DHT22;34369;51.174;6.738;2023-07-13T06:14:17;16.40;58.50
48589;DHT22;34369;51.174;6.738;2023-07-13T06:16:49;16.50;58.60
48589;DHT22;34369;51.174;6.738;2023-07-13T06:19:22;16.50;58.50
48589;DHT22;34369;51.174;6.738;2023-07-13T06:21:54;16.50;58.60
48589;DHT22;34369;51.174;6.738;2023-07-13T06:24:29;16.60;58.50
48589;DHT22;34369;51.174;6.738;2023-07-13T06:27:02;16.60;58.70
48589;DHT22;34369;51.174;6.738;2023-07-13T06:29:37;16.60;58.60
48589;DHT22;34369;51.174;6.738;2023-07-13T06:32:11;16.70;58.80
48589;DHT22;34369;51.174;6.738;2023-07-13T06:34:43;16.70;58.70
48589;DHT22;34369;51.174;6.738;2023-07-13T06:37:17;16.80;58.70
48589;DHT22;34369;51.174;6.738;2023-07-13T06:39:49;16.80;58.60
48589;DHT22;34369;51.174;6.738;2023-07-13T06:42:21;16.90;58.90
48589;DHT22;34369;51.174;6.738;2023-07-13T06:44:56;17.00;58.60
48589;DHT22;34369;51.174;6.738;2023-07-13T06:47:29;17.00;58.50
48589;DHT22;34369;51.174;6.738;2023-07-13T06:50:01;17.20;58.50
48589;DHT22;34369;51.174;6.738;2023-07-13T06:52:34;17.20;58.30
48589;DHT22;34369;51.174;6.738;2023-07-13T06:55:07;17.40;58.10
48589;DHT22;34369;51.174;6.738;2023-07-13T06:57:40;17.40;57.90
48589;DHT22;34369;51.174;6.738;2023-07-13T07:00:15;17.50;57.80
48589;DHT22;34369;51.174;6.738;2023-07-13T07:02:48;17.50;57.70
48589;DHT22;34369;51.174;6.738;2023-07-13T07:05:20;17.60;57.50
48589;DHT22;34369;51.174;6.738;2023-07-13T07:07:54;17.70;57.30
48589;DHT22;34369;51.174;6.738;2023-07-13T07:10:29;17.80;57.20
48589;DHT22;34369;51.174;6.738;2023-07-13T07:13:03;17.80;57.00
48589;DHT22;34369;51.174;6.738;2023-07-13T07:15:37;17.90;56.70
48589;DHT22;34369;51.174;6.738;2023-07-13T07:18:09;17.90;56.80
48589;DHT22;34369;51.174;6.738;2023-07-13T07:20:42;18.00;56.80
48589;DHT22;34369;51.174;6.738;2023-07-13T07:23:14;18.00;56.70
48589;DHT22;34369;51.174;6.738;2023-07-13T07:25:47;18.00;56.80
48589;DHT22;34369;51.174;6.738;2023-07-13T07:28:19;18.10;57.00
48589;DHT22;34369;51.174;6.738;2023-07-13T07:30:55;18.10;56.80
48589;DHT22;34369;51.174;6.738;2023-07-13T07:33:28;18.20;56.70
48589;DHT22;34369;51.174;6.738;2023-07-13T07:36:01;18.30;56.70
48589;DHT22;34369;51.174;6.738;2023-07-13T07:38:34;18.40;56.40
48589;DHT22;34369;51.174;6.738;2023-07-13T07:41:06;18.40;56.30
48589;DHT22;34369;51.174;6.738;2023-07-13T07:43:39;18.50;56.10
48589;DHT22;34369;51.174;6.738;2023-07-13T07:46:13;18.60;56.00
48589;DHT22;34369;51.174;6.738;2023-07-13T07:48:46;18.60;55.80
48589;DHT22;34369;51.174;6.738;2023-07-13T07:51:18;18.70;55.80
48589;DHT22;34369;51.174;6.738;2023-07-13T07:53:50;18.80;55.80
48589;DHT22;34369;51.174;6.738;2023-07-13T07:56:22;18.90;55.70
48589;DHT22;34369;51.174;6.738;2023-07-13T07:58:56;19.00;55.50
48589;DHT22;34369;51.174;6.738;2023-07-13T08:01:29;19.00;55.50
48589;DHT22;34369;51.174;6.738;2023-07-13T08:04:03;19.20;55.40
48589;DHT22;34369;51.174;6.738;2023-07-13T08:06:35;19.40;55.40
48589;DHT22;34369;51.174;6.738;2023-07-13T08:09:08;19.50;54.90
48589;DHT22;34369;51.174;6.738;2023-07-13T08:11:40;19.60;54.70
48589;DHT22;34369;51.174;6.738;2023-07-13T08:14:13;19.80;54.80
48589;DHT22;34369;51.174;6.738;2023-07-13T08:16:48;19.90;54.50
48589;DHT22;34369;51.174;6.738;2023-07-13T08:19:20;20.00;53.90
48589;DHT22;34369;51.174;6.738;2023-07-13T08:21:52;20.10;53.70
48589;DHT22;34369;51.174;6.738;2023-07-13T08:24:25;20.10;53.80
48589;DHT22;34369;51.174;6.738;2023-07-13T08:26:57;20.20;53.70
48589;DHT22;34369;51.174;6.738;2023-07-13T08:29:29;20.20;53.60
48589;DHT22;34369;51.174;6.738;2023-07-13T08:32:07;20.30;53.40
48589;DHT22;34369;51.174;6.738;2023-07-13T08:34:41;20.40;53.90
48589;DHT22;34369;51.174;6.738;2023-07-13T08:37:14;20.40;53.70
48589;DHT22;34369;51.174;6.738;2023-07-13T08:39:47;20.50;53.20
48589;DHT22;34369;51.174;6.738;2023-07-13T08:42:31;20.60;53.10
48589;DHT22;34369;51.174;6.738;2023-07-13T08:45:14;20.70;52.70
48589;DHT22;34369;51.174;6.738;2023-07-13T08:47:54;20.70;53.30
48589;DHT22;34369;51.174;6.738;2023-07-13T08:50:32;20.90;53.10
48589;DHT22;34369;51.174;6.738;2023-07-13T08:53:07;21.00;52.70
48589;DHT22;34369;51.174;6.738;2023-07-13T08:55:42;21.00;52.60
48589;DHT22;34369;51.174;6.738;2023-07-13T08:58:16;21.10;52.60
48589;DHT22;34369;51.174;6.738;2023-07-13T09:00:54;21.10;52.30
48589;DHT22;34369;51.174;6.738;2023-07-13T09:03:45;21.20;51.80
48589;DHT22;34369;51.174;6.738;2023-07-13T09:06:26;21.30;52.10
48589;DHT22;34369;51.174;6.738;2023-07-13T09:09:10;21.40;51.70
48589;DHT22;34369;51.174;6.738;2023-07-13T09:11:52;21.40;51.60
48589;DHT22;34369;51.174;6.738;2023-07-13T09:14:42;21.40;51.40
48589;DHT22;34369;51.174;6.738;2023-07-13T09:17:22;21.50;51.60
48589;DHT22;34369;51.174;6.738;2023-07-13T09:20:02;21.50;50.90
48589;DHT22;34369;51.174;6.738;2023-07-13T09:22:39;21.50;50.20
48589;DHT22;34369;51.174;6.738;2023-07-13T09:25:29;21.50;50.60
48589;DHT22;34369;51.174;6.738;2023-07-13T09:28:10;21.50;50.40
48589;DHT22;34369;51.174;6.738;2023-07-13T09:30:48;21.40;50.50
48589;DHT22;34369;51.174;6.738;2023-07-13T09:33:24;21.40;50.80
48589;DHT22;34369;51.174;6.738;2023-07-13T09:36:04;21.40;50.90
48589;DHT22;34369;51.174;6.738;2023-07-13T09:38:57;21.50;50.70
48589;DHT22;34369;51.174;6.738;2023-07-13T09:41:38;21.50;50.30
48589;DHT22;34369;51.174;6.738;2023-07-13T09:44:28;21.50;50.00
48589;DHT22;34369;51.174;6.738;2023-07-13T09:47:03;21.50;50.10
48589;DHT22;34369;51.174;6.738;2023-07-13T09:49:45;21.50;49.90
48589;DHT22;34369;51.174;6.738;2023-07-13T09:52:18;21.50;49.90
48589;DHT22;34369;51.174;6.738;2023-07-13T09:54:51;21.50;50.20
48589;DHT22;34369;51.174;6.738;2023-07-13T09:57:29;21.40;49.80
48589;DHT22;34369;51.174;6.738;2023-07-13T10:00:01;21.40;49.60
48589;DHT22;34369;51.174;6.738;2023-07-13T10:02:36;21.40;49.70
48589;DHT22;34369;51.174;6.738;2023-07-13T10:05:13;21.40;50.00
48589;DHT22;34369;51.174;6.738;2023-07-13T10:07:47;21.40;50.30
48589;DHT22;34369;51.174;6.738;2023-07-13T10:10:22;21.40;50.10
48589;DHT22;34369;51.174;6.738;2023-07-13T10:12:54;21.40;50.00
48589;DHT22;34369;51.174;6.738;2023-07-13T10:15:27;21.40;50.10
48589;DHT22;34369;51.174;6.738;2023-07-13T10:18:01;21.40;50.00
48589;DHT22;34369;51.174;6.738;2023-07-13T10:20:33;21.50;49.90
48589;DHT22;34369;51.174;6.738;2023-07-13T10:23:12;21.50;49.90
48589;DHT22;34369;51.174;6.738;2023-07-13T10:25:48;21.50;49.40
48589;DHT22;34369;51.174;6.738;2023-07-13T10:28:27;21.50;49.70
48589;DHT22;34369;51.174;6.738;2023-07-13T10:31:01;21.50;50.20
48589;DHT22;34369;51.174;6.738;2023-07-13T10:33:35;21.60;49.60
48589;DHT22;34369;51.174;6.738;2023-07-13T10:36:14;21.70;49.70
48589;DHT22;34369;51.174;6.738;2023-07-13T10:38:51;21.60;49.40
48589;DHT22;34369;51.174;6.738;2023-07-13T10:41:26;21.70;49.60
48589;DHT22;34369;51.174;6.738;2023-07-13T10:44:00;21.70;49.40
48589;DHT22;34369;51.174;6.738;2023-07-13T10:46:34;21.70;49.30
48589;DHT22;34369;51.174;6.738;2023-07-13T10:49:07;21.70;49.50
48589;DHT22;34369;51.174;6.738;2023-07-13T10:51:41;21.70;49.80
48589;DHT22;34369;51.174;6.738;2023-07-13T10:54:20;21.80;49.30
48589;DHT22;34369;51.174;6.738;2023-07-13T10:57:08;21.80;48.70
48589;DHT22;34369;51.174;6.738;2023-07-13T10:59:48;21.80;48.30
48589;DHT22;34369;51.174;6.738;2023-07-13T11:02:25;21.80;48.80
48589;DHT22;34369;51.174;6.738;2023-07-13T11:05:15;21.80;48.60
48589;DHT22;34369;51.174;6.738;2023-07-13T11:08:11;21.70;49.00
48589;DHT22;34369;51.174;6.738;2023-07-13T11:10:54;21.70;48.90
48589;DHT22;34369;51.174;6.738;2023-07-13T11:16:43;21.70;48.60
48589;DHT22;34369;51.174;6.738;2023-07-13T11:19:40;21.80;48.40
48589;DHT22;34369;51.174;6.738;2023-07-13T11:22:16;21.80;48.20
48589;DHT22;34369;51.174;6.738;2023-07-13T11:25:00;21.80;48.70
48589;DHT22;34369;51.174;6.738;2023-07-13T11:27:38;21.90;49.20
48589;DHT22;34369;51.174;6.738;2023-07-13T11:30:31;21.90;48.90
48589;DHT22;34369;51.174;6.738;2023-07-13T11:33:13;22.00;49.10
48589;DHT22;34369;51.174;6.738;2023-07-13T11:35:52;22.10;48.40
48589;DHT22;34369;51.174;6.738;2023-07-13T11:38:33;22.20;47.90
48589;DHT22;34369;51.174;6.738;2023-07-13T11:41:22;22.30;48.20
48589;DHT22;34369;51.174;6.738;2023-07-13T11:44:11;22.30;47.80
48589;DHT22;34369;51.174;6.738;2023-07-13T11:46:46;22.50;48.90
48589;DHT22;34369;51.174;6.738;2023-07-13T11:49:21;22.70;48.40
48589;DHT22;34369;51.174;6.738;2023-07-13T11:51:55;23.00;47.60
48589;DHT22;34369;51.174;6.738;2023-07-13T11:54:34;23.10;46.70
48589;DHT22;34369;51.174;6.738;2023-07-13T11:57:25;23.30;46.60
48589;DHT22;34369;51.174;6.738;2023-07-13T12:00:03;23.50;45.50
48589;DHT22;34369;51.174;6.738;2023-07-13T12:02:44;23.50;46.20
48589;DHT22;34369;51.174;6.738;2023-07-13T12:05:19;23.60;45.70
48589;DHT22;34369;51.174;6.738;2023-07-13T12:07:52;23.70;45.10
48589;DHT22;34369;51.174;6.738;2023-07-13T12:10:26;23.80;45.00
48589;DHT22;34369;51.174;6.738;2023-07-13T12:13:01;23.90;45.10
48589;DHT22;34369;51.174;6.738;2023-07-13T12:15:39;23.90;44.60
48589;DHT22;34369;51.174;6.738;2023-07-13T12:18:13;23.90;44.70
48589;DHT22;34369;51.174;6.738;2023-07-13T12:20:48;23.90;45.30
48589;DHT22;34369;51.174;6.738;2023-07-13T12:23:25;23.90;45.10
48589;DHT22;34369;51.174;6.738;2023-07-13T12:26:02;23.90;44.30
48589;DHT22;34369;51.174;6.738;2023-07-13T12:28:39;24.00;43.80
48589;DHT22;34369;51.174;6.738;2023-07-13T12:31:30;24.10;43.70
48589;DHT22;34369;51.174;6.738;2023-07-13T12:34:06;24.20;43.70
48589;DHT22;34369;51.174;6.738;2023-07-13T12:36:46;24.30;43.10
48589;DHT22;34369;51.174;6.738;2023-07-13T12:39:22;24.40;41.70
48589;DHT22;34369;51.174;6.738;2023-07-13T12:42:13;24.50;42.50
48589;DHT22;34369;51.174;6.738;2023-07-13T12:44:53;24.50;40.90
48589;DHT22;34369;51.174;6.738;2023-07-13T12:47:27;24.60;41.80
48589;DHT22;34369;51.174;6.738;2023-07-13T12:50:03;24.60;41.60
48589;DHT22;34369;51.174;6.738;2023-07-13T12:52:37;24.60;42.10
48589;DHT22;34369;51.174;6.738;2023-07-13T12:55:13;24.60;42.10
48589;DHT22;34369;51.174;6.738;2023-07-13T12:57:51;24.70;42.20
48589;DHT22;34369;51.174;6.738;2023-07-13T13:00:29;24.70;42.20
48589;DHT22;34369;51.174;6.738;2023-07-13T13:03:21;24.80;41.70
48589;DHT22;34369;51.174;6.738;2023-07-13T13:06:01;24.80;42.00
48589;DHT22;34369;51.174;6.738;2023-07-13T13:08:36;24.90;42.10
48589;DHT22;34369;51.174;6.738;2023-07-13T13:11:11;24.90;42.40
48589;DHT22;34369;51.174;6.738;2023-07-13T13:13:49;25.00;42.80
48589;DHT22;34369;51.174;6.738;2023-07-13T13:16:23;25.00;42.00
48589;DHT22;34369;51.174;6.738;2023-07-13T13:19:05;25.20;41.80
48589;DHT22;34369;51.174;6.738;2023-07-13T13:21:44;25.30;41.50
48589;DHT22;34369;51.174;6.738;2023-07-13T13:24:20;25.30;41.10
48589;DHT22;34369;51.174;6.738;2023-07-13T13:26:53;25.30;40.70
48589;DHT22;34369;51.174;6.738;2023-07-13T13:29:27;25.30;40.50
48589;DHT22;34369;51.174;6.738;2023-07-13T13:32:00;25.30;40.60
48589;DHT22;34369;51.174;6.738;2023-07-13T13:34:33;25.20;40.90
48589;DHT22;34369;51.174;6.738;2023-07-13T13:37:15;25.00;40.90
48589;DHT22;34369;51.174;6.738;2023-07-13T13:39:50;25.00;41.00
48589;DHT22;34369;51.174;6.738;2023-07-13T13:42:25;24.90;41.30
48589;DHT22;34369;51.174;6.738;2023-07-13T13:44:59;24.80;41.00
48589;DHT22;34369;51.174;6.738;2023-07-13T13:47:32;24.70;41.20
48589;DHT22;34369;51.174;6.738;2023-07-13T13:50:15;24.70;41.10
48589;DHT22;34369;51.174;6.738;2023-07-13T13:52:50;24.70;41.00
48589;DHT22;34369;51.174;6.738;2023-07-13T13:55:22;24.70;40.80
48589;DHT22;34369;51.174;6.738;2023-07-13T13:57:55;24.60;40.90
48589;DHT22;34369;51.174;6.738;2023-07-13T14:00:27;24.60;41.00
48589;DHT22;34369;51.174;6.738;2023-07-13T14:02:59;24.50;40.80
48589;DHT22;34369;51.174;6.738;2023-07-13T14:05:33;24.40;40.80
48589;DHT22;34369;51.174;6.738;2023-07-13T14:08:11;24.40;41.40
48589;DHT22;34369;51.174;6.738;2023-07-13T14:10:45;24.40;41.00
48589;DHT22;34369;51.174;6.738;2023-07-13T14:13:22;24.40;41.20
48589;DHT22;34369;51.174;6.738;2023-07-13T14:15:58;24.40;40.70
48589;DHT22;34369;51.174;6.738;2023-07-13T14:18:30;24.40;40.80
48589;DHT22;34369;51.174;6.738;2023-07-13T14:21:11;24.40;41.20
48589;DHT22;34369;51.174;6.738;2023-07-13T14:23:45;24.40;41.80
48589;DHT22;34369;51.174;6.738;2023-07-13T14:26:21;24.50;42.00
48589;DHT22;34369;51.174;6.738;2023-07-13T14:28:56;24.50;41.00
48589;DHT22;34369;51.174;6.738;2023-07-13T14:31:29;24.60;40.80
48589;DHT22;34369;51.174;6.738;2023-07-13T14:34:01;24.70;40.20
48589;DHT22;34369;51.174;6.738;2023-07-13T14:36:38;24.70;40.20
48589;DHT22;34369;51.174;6.738;2023-07-13T14:39:13;24.70;40.20
48589;DHT22;34369;51.174;6.738;2023-07-13T14:41:50;24.60;40.50
48589;DHT22;34369;51.174;6.738;2023-07-13T14:44:26;24.50;40.70
48589;DHT22;34369;51.174;6.738;2023-07-13T14:47:03;24.40;40.50
48589;DHT22;34369;51.174;6.738;2023-07-13T14:49:40;24.30;40.90
48589;DHT22;34369;51.174;6.738;2023-07-13T14:52:18;24.20;41.80
48589;DHT22;34369;51.174;6.738;2023-07-13T14:54:53;24.00;42.80
48589;DHT22;34369;51.174;6.738;2023-07-13T14:57:26;23.90;43.80
48589;DHT22;34369;51.174;6.738;2023-07-13T14:59:59;23.60;44.70
48589;DHT22;34369;51.174;6.738;2023-07-13T15:02:33;23.40;45.70
48589;DHT22;34369;51.174;6.738;2023-07-13T15:05:13;23.10;46.40
48589;DHT22;34369;51.174;6.738;2023-07-13T15:07:47;22.90;47.80
48589;DHT22;34369;51.174;6.738;2023-07-13T15:10:23;22.70;48.00
48589;DHT22;34369;51.174;6.738;2023-07-13T15:12:58;22.50;48.30
48589;DHT22;34369;51.174;6.738;2023-07-13T15:15:34;22.30;48.00
48589;DHT22;34369;51.174;6.738;2023-07-13T15:18:09;22.10;48.80
48589;DHT22;34369;51.174;6.738;2023-07-13T15:20:44;21.90;49.30
48589;DHT22;34369;51.174;6.738;2023-07-13T15:23:25;21.70;50.10
48589;DHT22;34369;51.174;6.738;2023-07-13T15:25:57;21.50;50.60
48589;DHT22;34369;51.174;6.738;2023-07-13T15:28:29;21.40;50.80
48589;DHT22;34369;51.174;6.738;2023-07-13T15:31:04;21.30;51.50
48589;DHT22;34369;51.174;6.738;2023-07-13T15:34:42;21.10;51.60
48589;DHT22;34369;51.174;6.738;2023-07-13T15:37:14;21.00;51.90
48589;DHT22;34369;51.174;6.738;2023-07-13T15:39:48;20.90;51.10
48589;DHT22;34369;51.174;6.738;2023-07-13T15:42:22;20.80;51.80
48589;DHT22;34369;51.174;6.738;2023-07-13T15:44:56;20.70;52.10
48589;DHT22;34369;51.174;6.738;2023-07-13T15:47:29;20.60;52.40
48589;DHT22;34369;51.174;6.738;2023-07-13T15:50:02;20.50;52.50
48589;DHT22;34369;51.174;6.738;2023-07-13T15:52:35;20.40;52.80
48589;DHT22;34369;51.174;6.738;2023-07-13T15:55:12;20.30;52.80
48589;DHT22;34369;51.174;6.738;2023-07-13T15:57:48;20.30;52.80
48589;DHT22;34369;51.174;6.738;2023-07-13T16:00:23;20.20;52.10
48589;DHT22;34369;51.174;6.738;2023-07-13T16:02:57;20.20;52.80
48589;DHT22;34369;51.174;6.738;2023-07-13T16:05:30;20.10;52.40
48589;DHT22;34369;51.174;6.738;2023-07-13T16:08:03;20.10;52.50
48589;DHT22;34369;51.174;6.738;2023-07-13T16:10:38;20.00;52.40
48589;DHT22;34369;51.174;6.738;2023-07-13T16:13:31;20.00;52.90
48589;DHT22;34369;51.174;6.738;2023-07-13T16:16:08;20.00;53.10
48589;DHT22;34369;51.174;6.738;2023-07-13T16:18:41;19.90;53.30
48589;DHT22;34369;51.174;6.738;2023-07-13T16:21:14;19.90;53.10
48589;DHT22;34369;51.174;6.738;2023-07-13T16:23:47;19.80;52.90